Terminal Aerodrome Forecast
Issued by NWS

Home | Current Version | Previous Version | Text Only | Print | Product List | Glossary On
Versions: 1 2 3 4 5 6 7 8 9 10 11 12 13
000
FTUS41 KBTV 301720
TAFRUT
TAF
KRUT 301720Z 3018/3118 19007G14KT P6SM -SHRA SCT050 BKN120
      TEMPO 3018/3019 VRB15G25KT 2SM +TSRA BR BKN025 OVC050CB
     FM302100 22005KT P6SM SCT050
     FM310000 13005KT P6SM FEW050
     FM311200 28007KT P6SM SCT050
      AMD NOT SKED=

USA.gov is the U.S. government's official web portal to all federal, state and local government web resources and services.